Time;durP1;ratioP1;P1;durP2;ratioP2;P2;SDS_P1;SDS_P2;PMS_P1;PMS_P2;Temp;Humidity;BMP_temperature;BMP_pressure;BME280_temperature;BME280_humidity;BME280_pressure;Samples;Min_cycle;Max_cycle;Signal;HPM_P1;HPM_P2
2023/02/24 00:00:36;;;;;;;15.48;3.40;;;4.90;84.80;;;;;;9175625;19;20014;-69
2023/02/24 00:03:43;;;;;;;10.77;2.80;;;4.80;84.80;;;;;;9178059;19;20015;-69
2023/02/24 00:06:48;;;;;;;27.48;3.55;;;4.80;85.40;;;;;;9177338;19;20018;-69
2023/02/24 00:09:54;;;;;;;23.55;3.58;;;4.80;84.80;;;;;;9176844;19;20014;-69
2023/02/24 00:13:00;;;;;;;12.23;3.65;;;4.70;84.80;;;;;;9177318;19;20034;-69
2023/02/24 00:16:07;;;;;;;22.35;3.22;;;4.70;84.80;;;;;;9177071;19;20013;-69
2023/02/24 00:19:13;;;;;;;16.23;3.33;;;4.70;84.80;;;;;;9172457;19;20002;-69
2023/02/24 00:22:19;;;;;;;17.63;2.78;;;4.60;84.80;;;;;;9171859;19;20013;-68
2023/02/24 00:25:23;;;;;;;15.68;4.22;;;4.60;84.80;;;;;;9177067;19;20010;-68
2023/02/24 00:28:31;;;;;;;16.15;2.95;;;4.50;84.80;;;;;;9171156;19;20015;-69
2023/02/24 00:31:38;;;;;;;26.02;3.55;;;4.50;84.80;;;;;;9176476;19;20021;-69
2023/02/24 00:34:45;;;;;;;21.40;2.88;;;4.50;84.80;;;;;;9175642;19;20019;-69
2023/02/24 00:37:53;;;;;;;18.88;2.90;;;4.50;84.80;;;;;;9176173;19;20014;-69
2023/02/24 00:41:01;;;;;;;10.63;2.30;;;4.40;84.80;;;;;;9172907;19;20018;-69
2023/02/24 00:44:09;;;;;;;19.23;3.75;;;4.30;84.70;;;;;;9174962;19;20026;-69
2023/02/24 00:47:17;;;;;;;13.88;2.75;;;4.40;85.50;;;;;;9175360;19;20015;-69
2023/02/24 00:50:21;;;;;;;17.48;3.13;;;4.40;84.90;;;;;;9174065;19;20015;-69
2023/02/24 00:53:29;;;;;;;19.90;3.05;;;4.30;84.90;;;;;;9175589;19;20010;-70
2023/02/24 00:56:34;;;;;;;20.13;3.35;;;4.30;84.90;;;;;;9174602;19;20011;-70
2023/02/24 00:59:46;;;;;;;18.90;3.00;;;4.30;84.90;;;;;;9174474;19;20015;-69
2023/02/24 01:02:50;;;;;;;17.35;3.67;;;4.30;85.00;;;;;;9172189;19;20018;-69
2023/02/24 01:05:56;;;;;;;14.43;3.20;;;4.30;85.00;;;;;;9179389;19;20042;-70
2023/02/24 01:09:01;;;;;;;15.57;2.80;;;4.20;84.90;;;;;;9181825;19;20135;-70
2023/02/24 01:15:43;;;;;;;14.00;2.80;;;4.20;85.00;;;;;;9178719;19;20022;-70
2023/02/24 01:18:50;;;;;;;25.17;3.25;;;4.20;84.90;;;;;;9177623;19;20021;-69
2023/02/24 01:21:54;;;;;;;17.60;3.22;;;4.20;84.90;;;;;;9180307;19;20013;-70
2023/02/24 01:25:00;;;;;;;18.98;3.63;;;4.20;84.90;;;;;;9180125;19;20483;-69
2023/02/24 01:28:04;;;;;;;18.13;3.38;;;4.20;84.90;;;;;;9181417;19;20017;-69
2023/02/24 01:31:17;;;;;;;21.08;3.35;;;4.20;84.90;;;;;;9182776;19;20014;-69
2023/02/24 01:34:23;;;;;;;25.27;3.92;;;4.20;84.90;;;;;;9183052;19;20013;-70
2023/02/24 01:37:29;;;;;;;25.15;2.95;;;4.20;84.90;;;;;;9182275;19;20018;-70
2023/02/24 01:40:34;;;;;;;13.63;2.95;;;4.20;84.90;;;;;;9178697;19;20021;-69
2023/02/24 01:44:00;;;;;;;14.00;3.03;;;4.20;84.90;;;;;;9181431;19;20036;-69
2023/02/24 01:47:07;;;;;;;14.65;2.58;;;4.20;84.90;;;;;;9180681;19;20014;-69
2023/02/24 01:50:14;;;;;;;9.73;2.78;;;4.10;84.90;;;;;;9180182;19;20014;-69
2023/02/24 01:53:19;;;;;;;15.18;2.83;;;4.10;84.90;;;;;;9182503;19;20010;-69
2023/02/24 01:56:28;;;;;;;19.58;3.30;;;4.20;84.90;;;;;;9182082;19;20018;-70
2023/02/24 01:59:36;;;;;;;20.60;2.70;;;4.10;84.80;;;;;;9180251;19;20352;-70
2023/02/24 02:02:49;;;;;;;17.13;3.33;;;4.10;84.90;;;;;;9178194;19;20023;-69
2023/02/24 02:05:57;;;;;;;23.65;2.85;;;4.10;84.80;;;;;;9182330;19;20379;-70
2023/02/24 02:09:06;;;;;;;14.00;3.08;;;4.10;84.80;;;;;;9177880;19;20487;-70
2023/02/24 02:12:11;;;;;;;12.02;2.10;;;4.10;84.80;;;;;;9182375;19;20467;-70
2023/02/24 02:15:19;;;;;;;17.25;3.25;;;4.00;84.80;;;;;;9180740;19;20022;-70
2023/02/24 02:18:37;;;;;;;16.15;2.50;;;4.00;84.80;;;;;;9174353;19;20019;-70
2023/02/24 02:22:04;;;;;;;20.42;2.92;;;4.00;84.80;;;;;;9179024;19;20360;-69
2023/02/24 02:25:19;;;;;;;12.48;2.80;;;4.00;84.80;;;;;;9180058;19;20022;-70
2023/02/24 02:28:53;;;;;;;16.88;3.03;;;3.90;84.70;;;;;;9179191;19;20518;-70
2023/02/24 02:32:17;;;;;;;15.68;3.33;;;4.00;84.70;;;;;;9179602;19;20006;-69
2023/02/24 02:35:35;;;;;;;21.38;3.17;;;3.90;84.70;;;;;;9180357;19;20014;-70
2023/02/24 02:38:48;;;;;;;10.43;2.88;;;3.90;84.70;;;;;;9180234;19;20014;-71
2023/02/24 02:42:03;;;;;;;18.00;2.40;;;3.90;84.80;;;;;;9177267;19;20022;-71
2023/02/24 02:45:13;;;;;;;17.02;3.55;;;3.80;84.70;;;;;;9179112;19;20419;-70
2023/02/24 02:48:25;;;;;;;12.52;2.95;;;3.80;84.70;;;;;;9178994;19;20523;-70
2023/02/24 02:51:39;;;;;;;19.10;3.20;;;3.80;84.80;;;;;;9179513;19;20027;-71
2023/02/24 02:54:51;;;;;;;11.60;2.70;;;3.80;84.80;;;;;;9178988;19;20026;-70
2023/02/24 02:57:57;;;;;;;13.35;2.92;;;3.80;84.80;;;;;;9178481;19;20479;-70
2023/02/24 03:01:06;;;;;;;8.50;2.40;;;3.80;84.90;;;;;;9179180;19;20010;-70
2023/02/24 03:04:15;;;;;;;16.50;2.40;;;3.80;84.90;;;;;;9178317;19;20106;-70
2023/02/24 03:07:31;;;;;;;10.98;2.55;;;3.70;84.90;;;;;;9177221;19;20010;-70
2023/02/24 03:10:35;;;;;;;20.73;3.00;;;3.70;84.90;;;;;;9178458;19;20018;-70
2023/02/24 03:13:48;;;;;;;6.95;2.55;;;3.70;84.90;;;;;;9179982;19;20018;-70
2023/02/24 03:16:54;;;;;;;17.88;2.78;;;3.70;84.90;;;;;;9174653;19;20081;-70
2023/02/24 03:20:13;;;;;;;17.55;2.50;;;3.70;84.90;;;;;;9172974;19;20041;-71
2023/02/24 03:23:25;;;;;;;13.48;2.10;;;3.70;84.90;;;;;;9174274;19;20010;-70
2023/02/24 03:26:40;;;;;;;17.88;2.28;;;3.80;85.00;;;;;;9176957;19;20018;-70
2023/02/24 03:29:49;;;;;;;11.93;2.78;;;3.70;84.90;;;;;;9177300;19;20010;-70
2023/02/24 03:33:03;;;;;;;15.07;2.22;;;3.70;84.90;;;;;;9179434;19;20415;-70
2023/02/24 03:36:08;;;;;;;14.18;2.72;;;3.70;84.90;;;;;;9177482;19;20498;-70
2023/02/24 03:39:17;;;;;;;15.95;2.20;;;3.70;84.90;;;;;;9177227;19;20483;-70
2023/02/24 03:42:34;;;;;;;8.73;2.38;;;3.70;84.90;;;;;;9175384;19;20073;-70
2023/02/24 03:45:42;;;;;;;17.40;3.33;;;3.70;84.90;;;;;;9176952;19;20010;-70
2023/02/24 03:48:49;;;;;;;6.63;2.10;;;3.70;84.90;;;;;;9178526;19;20010;-70
2023/02/24 03:52:08;;;;;;;13.73;2.03;;;3.80;85.00;;;;;;9177654;19;20467;-71
2023/02/24 03:55:22;;;;;;;17.80;2.20;;;3.70;84.90;;;;;;9177391;19;20014;-70
2023/02/24 03:58:40;;;;;;;13.43;2.13;;;3.70;84.90;;;;;;9176903;19;20356;-70
2023/02/24 04:01:56;;;;;;;8.15;1.98;;;3.70;84.90;;;;;;9174339;19;20022;-70
2023/02/24 04:05:13;;;;;;;13.63;2.60;;;3.70;84.90;;;;;;9176950;19;20015;-70
2023/02/24 04:08:38;;;;;;;17.42;1.85;;;3.80;84.90;;;;;;9173588;19;20032;-70
2023/02/24 04:11:53;;;;;;;12.75;3.08;;;3.70;84.80;;;;;;9175127;19;20015;-70
2023/02/24 04:15:03;;;;;;;13.43;2.30;;;3.80;84.90;;;;;;9175507;19;20022;-70
2023/02/24 04:18:15;;;;;;;11.05;2.33;;;3.80;84.90;;;;;;9175772;19;20025;-69
2023/02/24 04:21:23;;;;;;;13.65;1.67;;;3.80;84.90;;;;;;9174276;19;20013;-69
2023/02/24 04:24:33;;;;;;;12.93;2.03;;;3.80;84.90;;;;;;9175714;19;21522;-69
2023/02/24 04:27:39;;;;;;;4.05;1.70;;;3.80;84.90;;;;;;9174442;19;20022;-70
2023/02/24 04:30:55;;;;;;;9.70;2.05;;;3.80;84.90;;;;;;9175361;19;20015;-70
2023/02/24 04:34:00;;;;;;;19.88;2.47;;;3.80;84.90;;;;;;9175481;19;20094;-69
2023/02/24 04:37:14;;;;;;;7.32;1.75;;;3.80;84.80;;;;;;9175252;19;20007;-70
2023/02/24 04:40:21;;;;;;;9.15;2.33;;;3.80;84.80;;;;;;9183284;19;20011;-70
2023/02/24 04:43:29;;;;;;;11.75;2.28;;;3.80;84.80;;;;;;9182243;19;20026;-70
2023/02/24 04:46:33;;;;;;;16.75;2.00;;;3.90;84.80;;;;;;9184774;19;20022;-70
2023/02/24 04:49:40;;;;;;;12.90;2.10;;;3.90;84.80;;;;;;9182774;19;20026;-70
2023/02/24 04:52:44;;;;;;;10.98;2.38;;;3.90;84.80;;;;;;9185134;19;20330;-70
2023/02/24 04:55:50;;;;;;;8.30;1.50;;;3.90;84.80;;;;;;9182331;19;20025;-69
2023/02/24 04:58:56;;;;;;;9.25;1.95;;;3.90;84.70;;;;;;9184423;19;20361;-69
2023/02/24 05:02:02;;;;;;;9.63;1.52;;;3.90;84.70;;;;;;9180699;19;20030;-70
2023/02/24 05:05:09;;;;;;;15.30;2.33;;;3.90;84.70;;;;;;9182824;19;20010;-70
2023/02/24 05:08:15;;;;;;;14.60;1.95;;;3.90;84.70;;;;;;9181149;19;20021;-70
2023/02/24 05:11:19;;;;;;;;;;;3.90;84.70;;;;;;9184506;19;20015;-70
2023/02/24 05:14:27;;;;;;;16.27;2.75;;;3.80;84.70;;;;;;9181778;19;19919;-69
2023/02/24 05:17:32;;;;;;;15.20;1.73;;;3.80;84.60;;;;;;9183680;19;20010;-70
2023/02/24 05:23:58;;;;;;;6.03;1.70;;;3.80;84.60;;;;;;9182843;19;20487;-69
2023/02/24 05:27:04;;;;;;;11.95;2.08;;;3.80;84.60;;;;;;9182376;19;20015;-70
2023/02/24 05:30:13;;;;;;;13.32;2.67;;;3.80;84.50;;;;;;9182773;19;20795;-69
2023/02/24 05:33:21;;;;;;;12.70;2.03;;;3.80;84.50;;;;;;9182361;19;20022;-70
2023/02/24 05:36:26;;;;;;;9.65;1.92;;;3.90;84.60;;;;;;9182137;19;20368;-66
2023/02/24 05:39:33;;;;;;;12.40;2.40;;;3.80;84.50;;;;;;9181731;19;20026;-66
2023/02/24 05:42:37;;;;;;;10.00;2.38;;;3.80;84.50;;;;;;9181071;19;20011;-66
2023/02/24 05:45:45;;;;;;;9.52;1.90;;;3.80;84.50;;;;;;9179992;19;20388;-66
2023/02/24 05:48:55;;;;;;;15.40;2.20;;;3.80;84.50;;;;;;9182674;19;20044;-66
2023/02/24 05:52:06;;;;;;;8.93;2.08;;;3.80;84.50;;;;;;9179303;19;20021;-66
2023/02/24 05:55:12;;;;;;;9.23;1.75;;;3.80;84.50;;;;;;9180721;19;20045;-66
2023/02/24 05:58:18;;;;;;;10.20;2.10;;;3.80;84.50;;;;;;9180833;19;20021;-66
2023/02/24 06:01:29;;;;;;;8.45;1.63;;;3.80;84.40;;;;;;9179269;19;20019;-66
2023/02/24 06:04:45;;;;;;;24.40;3.67;;;3.80;84.40;;;;;;9173198;19;20017;-66
2023/02/24 06:07:49;;;;;;;9.00;2.28;;;3.80;84.50;;;;;;9172406;19;20007;-66
2023/02/24 06:10:55;;;;;;;6.70;1.90;;;3.80;84.40;;;;;;9173369;19;20014;-66
2023/02/24 06:13:59;;;;;;;11.93;1.70;;;3.70;84.40;;;;;;9174663;19;20066;-66
2023/02/24 06:17:07;;;;;;;10.13;2.22;;;3.80;84.40;;;;;;9172493;19;20022;-66
2023/02/24 06:20:14;;;;;;;14.98;2.08;;;3.80;84.40;;;;;;9169078;19;20015;-66
2023/02/24 06:23:21;;;;;;;9.27;1.70;;;3.80;84.50;;;;;;9168962;19;20574;-66
2023/02/24 06:26:28;;;;;;;20.00;2.15;;;3.80;84.50;;;;;;9178199;19;20478;-66
2023/02/24 06:29:35;;;;;;;11.23;1.95;;;3.80;84.40;;;;;;9179799;19;20018;-66
2023/02/24 06:32:41;;;;;;;13.75;2.05;;;3.80;84.40;;;;;;9181015;19;20038;-66
2023/02/24 06:35:48;;;;;;;10.48;1.95;;;3.80;84.40;;;;;;9180915;19;20014;-66
2023/02/24 06:38:52;;;;;;;11.52;1.77;;;3.80;84.40;;;;;;9179301;19;20014;-66
2023/02/24 06:42:02;;;;;;;7.78;1.92;;;3.80;84.40;;;;;;9177763;19;20022;-66
2023/02/24 06:45:07;;;;;;;6.93;1.50;;;3.80;85.00;;;;;;9180475;19;20507;-65
2023/02/24 06:48:15;;;;;;;13.18;2.08;;;3.80;84.50;;;;;;9179801;19;20014;-66
2023/02/24 06:51:20;;;;;;;20.35;1.80;;;3.80;84.40;;;;;;9180495;19;20014;-66
2023/02/24 06:54:29;;;;;;;15.25;1.92;;;3.80;84.40;;;;;;9180254;19;20002;-66
2023/02/24 06:57:33;;;;;;;6.65;1.80;;;3.80;84.40;;;;;;9181206;19;20030;-66
2023/02/24 07:00:39;;;;;;;8.75;1.77;;;3.80;84.40;;;;;;9176468;19;20022;-66
2023/02/24 07:04:02;;;;;;;11.00;2.72;;;3.90;84.40;;;;;;9173045;19;20533;-65
2023/02/24 07:07:08;;;;;;;8.43;1.75;;;3.90;84.40;;;;;;9179701;19;20479;-66
2023/02/24 07:10:13;;;;;;;12.75;2.38;;;3.90;84.40;;;;;;9179874;19;20025;-66
2023/02/24 07:13:19;;;;;;;15.02;2.08;;;3.90;84.40;;;;;;9178002;19;20010;-66
2023/02/24 07:16:25;;;;;;;13.07;2.05;;;3.90;84.40;;;;;;9179076;19;20058;-66
2023/02/24 07:19:33;;;;;;;16.83;2.53;;;3.90;84.40;;;;;;9174614;19;20384;-66
2023/02/24 07:22:37;;;;;;;12.32;2.15;;;3.90;84.30;;;;;;9175699;19;20011;-66
2023/02/24 07:25:45;;;;;;;8.65;2.40;;;3.90;84.30;;;;;;9177806;19;20107;-66
2023/02/24 07:28:49;;;;;;;17.98;2.10;;;3.90;84.30;;;;;;9179262;19;20007;-66
2023/02/24 07:31:55;;;;;;;22.58;2.30;;;4.00;84.30;;;;;;9179088;19;20013;-66
2023/02/24 07:35:02;;;;;;;15.75;1.95;;;4.00;84.40;;;;;;9177624;19;20010;-66
2023/02/24 07:38:08;;;;;;;4.95;1.63;;;4.00;84.30;;;;;;9178376;19;20368;-66
2023/02/24 07:41:14;;;;;;;8.13;2.38;;;4.00;84.40;;;;;;9179244;19;20018;-66
2023/02/24 07:44:22;;;;;;;12.05;2.03;;;4.00;84.30;;;;;;9177913;19;20025;-66
2023/02/24 07:47:26;;;;;;;12.05;2.70;;;4.10;84.40;;;;;;9177312;19;20011;-66
2023/02/24 07:50:34;;;;;;;10.35;2.53;;;4.00;84.30;;;;;;9176932;19;20670;-66
2023/02/24 07:53:39;;;;;;;13.88;1.88;;;4.10;84.40;;;;;;9178329;19;20014;-66
2023/02/24 07:56:55;;;;;;;9.52;1.90;;;4.10;84.40;;;;;;9175720;19;20011;-66
2023/02/24 07:59:59;;;;;;;10.52;1.80;;;4.10;84.40;;;;;;9178614;19;20476;-66
2023/02/24 08:03:05;;;;;;;9.75;2.30;;;4.10;84.40;;;;;;9173662;19;20025;-67
2023/02/24 08:06:14;;;;;;;11.75;2.10;;;4.10;84.40;;;;;;9174939;19;20095;-67
2023/02/24 08:09:45;;;;;;;11.85;2.10;;;4.10;84.40;;;;;;9173736;19;20010;-68
2023/02/24 08:12:46;;;;;;;16.23;2.72;;;4.20;84.40;;;;;;9175109;19;20035;-67
2023/02/24 08:15:55;;;;;;;11.25;1.90;;;4.20;84.50;;;;;;9175786;19;20021;-67
2023/02/24 08:19:02;;;;;;;15.27;2.42;;;4.20;84.50;;;;;;9170700;19;20045;-68
2023/02/24 08:22:22;;;;;;;13.38;2.15;;;4.20;84.50;;;;;;9176993;19;20018;-68
2023/02/24 08:25:34;;;;;;;18.45;3.25;;;4.20;84.50;;;;;;9176570;19;20023;-68
2023/02/24 08:28:40;;;;;;;10.73;2.72;;;4.20;84.50;;;;;;9177336;19;20018;-68
2023/02/24 08:31:44;;;;;;;15.20;2.65;;;4.20;84.60;;;;;;9176516;19;20097;-68
2023/02/24 08:34:55;;;;;;;15.93;2.40;;;4.20;84.50;;;;;;9176713;19;20022;-67
2023/02/24 08:38:06;;;;;;;8.68;2.83;;;4.20;84.60;;;;;;9176241;19;20035;-68
2023/02/24 08:41:16;;;;;;;15.65;2.55;;;4.30;84.60;;;;;;9176997;19;20015;-68
2023/02/24 08:44:21;;;;;;;14.45;2.90;;;4.20;84.60;;;;;;9176388;19;20082;-68
2023/02/24 08:47:29;;;;;;;15.07;2.58;;;4.30;84.70;;;;;;9174908;19;20018;-67
2023/02/24 08:50:33;;;;;;;16.65;2.83;;;4.20;84.60;;;;;;9176642;19;20007;-67
2023/02/24 08:53:42;;;;;;;10.88;2.67;;;4.30;84.70;;;;;;9172545;19;20014;-67
2023/02/24 08:56:54;;;;;;;13.13;2.55;;;4.30;84.70;;;;;;9173161;19;20014;-68
2023/02/24 09:00:05;;;;;;;14.10;2.83;;;4.30;84.80;;;;;;9174117;19;20026;-68
2023/02/24 09:03:09;;;;;;;19.60;2.80;;;4.30;84.70;;;;;;9173405;19;20047;-68
2023/02/24 09:06:24;;;;;;;14.00;2.75;;;4.30;84.80;;;;;;9175680;19;20468;-68
2023/02/24 09:09:30;;;;;;;13.55;3.25;;;4.30;84.80;;;;;;9165033;19;20018;-68
2023/02/24 09:12:40;;;;;;;12.77;2.30;;;4.30;84.80;;;;;;9162565;19;20018;-68
2023/02/24 09:15:43;;;;;;;10.27;2.80;;;4.30;84.90;;;;;;9175378;19;20349;-67
2023/02/24 09:19:39;;;;;;;12.13;3.05;;;4.30;84.90;;;;;;9169760;19;20014;-68
2023/02/24 09:22:13;;;;;;;23.63;3.38;;;4.30;85.00;;;;;;9169788;19;20022;-68
2023/02/24 09:25:43;;;;;;;17.15;2.95;;;4.40;85.00;;;;;;9170525;19;20021;-67
2023/02/24 09:28:53;;;;;;;10.43;2.42;;;4.40;85.00;;;;;;9180067;19;20376;-67
2023/02/24 09:32:03;;;;;;;15.73;2.58;;;4.50;85.10;;;;;;9179140;19;20006;-67
2023/02/24 09:35:08;;;;;;;8.35;2.60;;;4.50;85.10;;;;;;9171348;19;20014;-68
2023/02/24 09:38:16;;;;;;;14.32;2.53;;;4.50;85.10;;;;;;9175337;19;20025;-68
2023/02/24 09:41:32;;;;;;;9.52;2.60;;;4.50;85.10;;;;;;9175435;19;20017;-68
2023/02/24 09:44:43;;;;;;;12.13;2.50;;;4.50;85.10;;;;;;9175855;19;20018;-67
2023/02/24 09:47:57;;;;;;;8.73;2.65;;;4.60;85.20;;;;;;9174452;19;20025;-67
2023/02/24 09:51:04;;;;;;;13.00;2.92;;;4.60;85.20;;;;;;9172118;19;20022;-67
2023/02/24 09:54:16;;;;;;;9.63;2.38;;;4.60;85.20;;;;;;9174294;19;20026;-67
2023/02/24 09:57:36;;;;;;;8.63;2.30;;;4.60;85.20;;;;;;9173737;19;20019;-67
2023/02/24 10:00:45;;;;;;;15.20;2.25;;;4.70;85.30;;;;;;9174884;19;20026;-67
2023/02/24 10:04:05;;;;;;;15.90;2.70;;;4.70;85.30;;;;;;9172228;19;20025;-67
2023/02/24 10:07:37;;;;;;;14.20;5.05;;;4.70;85.30;;;;;;9172487;19;20011;-67
2023/02/24 10:11:05;;;;;;;9.15;2.42;;;4.70;85.30;;;;;;9166857;19;20022;-66
2023/02/24 10:14:18;;;;;;;13.02;2.63;;;4.80;85.40;;;;;;9170377;19;20006;-67
2023/02/24 10:17:38;;;;;;;12.88;2.95;;;4.80;85.40;;;;;;9173653;19;20018;-66
2023/02/24 10:20:48;;;;;;;15.45;2.60;;;4.80;85.40;;;;;;9168095;19;20011;-67
2023/02/24 10:24:05;;;;;;;13.98;3.05;;;4.90;85.50;;;;;;9172122;19;20022;-68
2023/02/24 10:27:15;;;;;;;15.80;3.92;;;4.90;85.50;;;;;;9173000;19;20034;-68
2023/02/24 10:30:41;;;;;;;16.45;2.72;;;4.90;85.50;;;;;;9175625;19;20345;-67
2023/02/24 10:33:47;;;;;;;13.13;2.35;;;5.00;85.60;;;;;;9173081;19;20026;-68
2023/02/24 10:36:56;;;;;;;20.27;3.17;;;5.00;85.60;;;;;;9171391;19;20018;-68
2023/02/24 10:40:08;;;;;;;13.65;2.70;;;5.10;85.60;;;;;;9172266;19;20472;-68
2023/02/24 10:43:19;;;;;;;7.28;2.60;;;5.10;85.70;;;;;;9165753;19;20029;-68
2023/02/24 10:46:32;;;;;;;14.13;3.38;;;5.20;85.70;;;;;;9163532;19;20381;-67
2023/02/24 10:49:57;;;;;;;24.58;4.00;;;5.20;85.70;;;;;;9161172;19;20010;-68
2023/02/24 10:53:25;;;;;;;11.43;2.97;;;5.20;85.70;;;;;;9162796;19;20014;-67
2023/02/24 10:56:43;;;;;;;11.70;2.90;;;5.30;85.70;;;;;;9170818;19;20014;-67
2023/02/24 11:03:24;;;;;;;;;;;5.30;85.80;;;;;;9171292;19;20019;-67
2023/02/24 11:06:54;;;;;;;18.63;4.22;;;5.40;85.80;;;;;;9170784;19;20328;-68
2023/02/24 11:10:12;;;;;;;17.17;3.17;;;5.40;85.70;;;;;;9170916;19;20729;-67
2023/02/24 11:20:24;;;;;;;11.07;2.97;;;5.50;85.80;;;;;;9164845;19;20019;-68
2023/02/24 11:23:35;;;;;;;15.43;2.83;;;5.50;85.90;;;;;;9168823;19;20018;-68
2023/02/24 11:26:42;;;;;;;10.20;2.70;;;5.60;85.90;;;;;;9171285;19;20114;-68
2023/02/24 11:30:13;;;;;;;13.85;3.30;;;5.60;85.90;;;;;;9170988;19;21032;-68
2023/02/24 11:33:29;;;;;;;16.08;2.78;;;5.60;86.00;;;;;;9170247;19;20104;-67
2023/02/24 11:36:48;;;;;;;16.38;3.83;;;5.70;86.00;;;;;;9170124;19;20503;-68
2023/02/24 11:39:57;;;;;;;15.13;3.63;;;5.70;86.10;;;;;;9169481;19;20105;-68
2023/02/24 11:43:10;;;;;;;8.65;3.10;;;5.70;86.10;;;;;;9166976;19;20018;-68
2023/02/24 11:46:18;;;;;;;12.45;2.58;;;5.70;86.10;;;;;;9165408;19;20030;-68
2023/02/24 11:49:31;;;;;;;11.00;3.30;;;5.80;86.20;;;;;;9169181;19;20130;-68
2023/02/24 11:52:41;;;;;;;16.52;3.53;;;5.80;86.20;;;;;;9169993;19;20135;-68
2023/02/24 11:55:52;;;;;;;14.05;3.03;;;5.90;86.30;;;;;;9169923;19;20022;-68
2023/02/24 11:59:02;;;;;;;7.00;3.15;;;5.90;86.90;;;;;;9167762;19;20555;-68
2023/02/24 12:02:17;;;;;;;11.75;3.30;;;5.90;86.30;;;;;;9170690;19;20021;-68
2023/02/24 12:05:25;;;;;;;10.05;3.30;;;6.00;86.40;;;;;;9169467;19;20015;-68
2023/02/24 12:08:37;;;;;;;8.18;2.90;;;6.00;86.40;;;;;;9166819;19;20022;-67
2023/02/24 12:11:48;;;;;;;13.50;3.35;;;6.10;86.50;;;;;;9170406;19;20372;-68
2023/02/24 12:14:58;;;;;;;7.95;3.05;;;6.10;86.50;;;;;;9168471;19;20025;-68
2023/02/24 12:18:08;;;;;;;12.02;3.88;;;6.20;86.60;;;;;;9167801;19;20018;-68
2023/02/24 12:21:22;;;;;;;9.70;3.47;;;6.20;86.60;;;;;;9164379;19;20031;-67
2023/02/24 12:24:29;;;;;;;10.52;3.03;;;6.30;86.80;;;;;;9166422;19;20123;-68
2023/02/24 12:27:49;;;;;;;15.95;3.97;;;6.40;87.50;;;;;;9169458;19;20015;-67
2023/02/24 12:31:07;;;;;;;14.95;4.40;;;6.50;87.00;;;;;;9166121;19;20050;-68
2023/02/24 12:34:22;;;;;;;11.80;4.05;;;6.60;87.10;;;;;;9166553;19;20018;-68
2023/02/24 12:37:52;;;;;;;20.10;4.30;;;6.70;87.10;;;;;;9166295;19;20025;-68
2023/02/24 12:41:16;;;;;;;14.93;4.22;;;6.80;87.30;;;;;;9167479;19;20021;-68
2023/02/24 12:44:29;;;;;;;10.20;3.63;;;6.90;87.20;;;;;;9165981;19;20377;-68
2023/02/24 12:47:44;;;;;;;19.27;3.42;;;7.00;87.20;;;;;;9166992;19;20010;-68
2023/02/24 12:50:54;;;;;;;11.35;3.42;;;7.10;87.20;;;;;;9168527;19;20022;-68
2023/02/24 12:54:05;;;;;;;14.18;3.42;;;7.20;87.20;;;;;;9168830;19;20019;-68
2023/02/24 12:57:20;;;;;;;11.27;2.92;;;7.30;87.20;;;;;;9165831;19;20462;-68
2023/02/24 13:00:39;;;;;;;9.45;3.25;;;7.40;87.20;;;;;;9171102;19;20002;-68
2023/02/24 13:04:08;;;;;;;21.20;3.58;;;7.50;87.20;;;;;;9173821;19;20078;-69
2023/02/24 13:07:31;;;;;;;10.95;2.90;;;7.50;87.20;;;;;;9176800;19;20033;-68
2023/02/24 13:10:44;;;;;;;25.20;4.15;;;7.60;87.20;;;;;;9174185;19;20023;-68
2023/02/24 13:14:01;;;;;;;18.05;4.47;;;7.70;87.20;;;;;;9177278;19;20030;-69
2023/02/24 13:17:08;;;;;;;10.15;3.95;;;7.70;87.20;;;;;;9174840;19;20918;-68
2023/02/24 13:20:27;;;;;;;14.70;3.50;;;7.80;87.20;;;;;;9170928;19;20011;-68
2023/02/24 13:23:31;;;;;;;18.10;4.07;;;7.90;87.30;;;;;;9174347;19;20042;-68
2023/02/24 13:26:37;;;;;;;16.98;4.18;;;7.90;87.20;;;;;;9173628;19;20050;-68
2023/02/24 13:29:47;;;;;;;;;;;7.90;87.20;;;;;;9175631;19;20029;-68
2023/02/24 13:33:02;;;;;;;16.80;3.20;;;8.00;87.20;;;;;;9175453;19;19933;-69
2023/02/24 13:36:20;;;;;;;30.67;3.42;;;8.00;87.10;;;;;;9171712;19;20086;-69
2023/02/24 13:39:33;;;;;;;19.83;2.63;;;8.10;87.00;;;;;;9176083;19;20014;-69
2023/02/24 13:42:37;;;;;;;17.00;2.83;;;8.00;87.00;;;;;;9174228;19;20487;-69
2023/02/24 13:45:56;;;;;;;18.90;2.65;;;8.00;86.90;;;;;;9174308;19;20014;-69
2023/02/24 13:49:25;;;;;;;27.23;2.60;;;8.00;86.80;;;;;;9177644;19;20420;-70
2023/02/24 13:52:44;;;;;;;13.00;2.33;;;8.00;86.80;;;;;;9175546;19;20019;-68
2023/02/24 13:56:01;;;;;;;13.30;2.38;;;7.90;86.70;;;;;;9174224;19;20097;-69
2023/02/24 13:59:21;;;;;;;20.60;2.58;;;7.90;86.70;;;;;;9175661;19;20022;-71
2023/02/24 14:02:29;;;;;;;26.80;2.90;;;7.90;86.90;;;;;;9174886;19;20018;-69
2023/02/24 14:05:37;;;;;;;13.95;2.33;;;7.90;86.90;;;;;;9175137;19;20025;-71
2023/02/24 14:08:46;;;;;;;20.25;2.58;;;7.90;87.00;;;;;;9173399;19;20019;-69
2023/02/24 14:11:58;;;;;;;19.05;3.17;;;7.80;87.00;;;;;;9172219;19;20022;-69
2023/02/24 14:15:03;;;;;;;20.52;2.70;;;7.90;87.00;;;;;;9172489;19;20386;-69
2023/02/24 14:18:21;;;;;;;20.80;2.78;;;7.90;87.10;;;;;;9172816;19;20732;-69
2023/02/24 14:21:26;;;;;;;22.83;3.42;;;7.80;87.10;;;;;;9173052;19;20073;-69
2023/02/24 14:24:32;;;;;;;27.13;2.45;;;7.90;87.20;;;;;;9170369;19;20023;-68
2023/02/24 14:27:38;;;;;;;;;;;7.90;87.10;;;;;;9172976;19;20065;-68
2023/02/24 14:30:44;;;;;;;17.42;2.45;;;7.90;87.10;;;;;;9170940;19;20422;-68
2023/02/24 14:33:57;;;;;;;22.02;2.88;;;7.90;87.10;;;;;;9172868;19;20021;-68
2023/02/24 14:37:04;;;;;;;25.52;2.92;;;7.90;87.10;;;;;;9173761;19;20541;-68
2023/02/24 14:40:20;;;;;;;19.55;2.60;;;7.90;87.00;;;;;;9171097;19;20465;-68
2023/02/24 14:43:27;;;;;;;23.13;2.53;;;7.90;87.10;;;;;;9171390;19;20025;-68
2023/02/24 14:46:31;;;;;;;22.02;2.40;;;7.90;87.10;;;;;;9167973;19;20483;-68
2023/02/24 14:49:39;;;;;;;19.38;3.03;;;7.90;87.10;;;;;;9170140;19;20010;-68
2023/02/24 14:52:47;;;;;;;19.33;2.70;;;8.00;87.20;;;;;;9170478;19;20022;-68
2023/02/24 14:55:56;;;;;;;16.85;2.05;;;8.00;87.20;;;;;;9174959;19;20021;-68
2023/02/24 14:59:07;;;;;;;15.70;2.55;;;8.00;87.20;;;;;;9177514;19;20018;-68
2023/02/24 15:02:17;;;;;;;10.48;1.55;;;8.00;87.20;;;;;;9178858;19;20638;-65
2023/02/24 15:05:25;;;;;;;7.65;1.25;;;8.00;87.20;;;;;;9174696;19;20378;-65
2023/02/24 15:08:37;;;;;;;14.18;2.25;;;8.00;87.20;;;;;;9170791;19;20022;-65
2023/02/24 15:11:41;;;;;;;8.55;1.10;;;8.00;87.10;;;;;;9179486;19;20002;-68
2023/02/24 15:14:51;;;;;;;13.75;1.55;;;8.10;87.10;;;;;;9178906;19;20018;-69
2023/02/24 15:17:57;;;;;;;7.35;1.20;;;8.10;87.20;;;;;;9179349;19;20467;-69
2023/02/24 15:21:07;;;;;;;7.82;0.95;;;8.10;87.20;;;;;;9172665;19;20807;-69
2023/02/24 15:24:20;;;;;;;4.82;1.00;;;8.10;87.10;;;;;;9172387;19;20027;-69
2023/02/24 15:27:31;;;;;;;6.97;0.95;;;8.10;87.00;;;;;;9174827;19;20014;-68
2023/02/24 15:30:38;;;;;;;6.40;1.10;;;8.00;86.90;;;;;;9176251;19;20364;-69
2023/02/24 15:33:47;;;;;;;7.15;1.40;;;8.00;86.90;;;;;;9174564;19;20010;-68
2023/02/24 15:36:55;;;;;;;8.73;0.93;;;8.00;86.90;;;;;;9176822;19;20010;-68
2023/02/24 15:40:08;;;;;;;6.10;1.00;;;8.00;86.80;;;;;;9176706;19;20018;-69
2023/02/24 15:43:12;;;;;;;9.90;1.08;;;8.00;86.90;;;;;;9169595;19;20026;-68
2023/02/24 15:46:25;;;;;;;9.05;1.90;;;8.00;86.90;;;;;;9168440;19;20013;-68
2023/02/24 15:49:30;;;;;;;6.93;1.20;;;8.00;86.90;;;;;;9170102;19;20033;-68
2023/02/24 15:52:39;;;;;;;7.07;1.77;;;8.00;86.90;;;;;;9170326;19;20053;-68
2023/02/24 15:55:43;;;;;;;5.70;1.80;;;7.90;86.90;;;;;;9168823;19;20025;-68
2023/02/24 15:58:49;;;;;;;3.75;0.88;;;7.90;86.90;;;;;;9169336;19;20099;-68
2023/02/24 16:01:53;;;;;;;;;;;7.90;86.80;;;;;;9171508;19;20023;-68
2023/02/24 16:04:59;;;;;;;2.83;1.17;;;7.90;86.70;;;;;;9166146;19;19919;-69
2023/02/24 16:08:06;;;;;;;3.05;0.50;;;7.80;86.50;;;;;;9169821;19;20587;-68
2023/02/24 16:11:12;;;;;;;5.57;0.90;;;7.80;86.60;;;;;;9168729;19;20514;-70
2023/02/24 16:14:19;;;;;;;5.90;1.10;;;7.70;86.50;;;;;;9168245;19;20014;-69
2023/02/24 16:17:32;;;;;;;8.27;1.80;;;7.60;86.50;;;;;;9170949;19;20374;-69
2023/02/24 16:20:38;;;;;;;7.07;2.38;;;7.60;86.50;;;;;;9164585;19;20025;-68
2023/02/24 16:23:46;;;;;;;3.38;0.70;;;7.50;86.50;;;;;;9166319;19;20015;-69
2023/02/24 16:26:50;;;;;;;4.85;1.23;;;7.50;86.50;;;;;;9170554;19;20487;-69
2023/02/24 16:29:56;;;;;;;5.50;0.93;;;7.40;86.50;;;;;;9168664;19;20021;-68
2023/02/24 16:33:01;;;;;;;5.65;0.98;;;7.40;86.50;;;;;;9169842;19;20599;-70
2023/02/24 16:36:12;;;;;;;4.50;1.58;;;7.30;86.50;;;;;;9174475;19;20014;-69
2023/02/24 16:39:19;;;;;;;6.55;1.75;;;7.30;86.50;;;;;;9177030;19;20472;-69
2023/02/24 16:42:25;;;;;;;8.07;1.63;;;7.30;86.50;;;;;;9176085;19;20030;-69
2023/02/24 16:45:30;;;;;;;;;;;7.20;86.60;;;;;;9170141;19;20041;-69
2023/02/24 16:48:39;;;;;;;9.32;2.40;;;7.20;86.60;;;;;;9166670;19;20236;-69
2023/02/24 16:51:43;;;;;;;11.40;3.28;;;7.10;86.60;;;;;;9167216;19;20035;-69